Newfield, New Jersey
Current Conditions -  °F | °C
As of 3:54 PM on Thursday 23 Oct 2014 (Local Time) from KMIV Reporting Station
Overcast Overcast  
Wind Chill: 54°   Ceiling: 3200
Heat Index: 54°   Visibility: 10mi
Dew Point: 47°   Wind: 15mph
Humidity: 77%   Direction: 330°NNW
Pressure: 29.77"   Gusts: 26mph
Location:  39.55°N, 75.02°W
Report Text: KMIV 231954Z AUTO 33013G23KT 10SM FEW025 BKN032 OVC048 12/08 A2977 RMK AO2 SLP078 T01220083
Loading
Personal Weather Stations






























Interactive Weather Map
Tropical Storm Tracking
New forecast layout! Learn more

10-Day Weather Forecast

Advertisements
Track Severe Weather on mobile